createdAt,value
2019-03-23T00:00:41.232Z,237.57
2019-03-23T00:03:08.714Z,228.23
2019-03-23T00:05:36.032Z,244.77
2019-03-23T00:08:03.459Z,249.50
2019-03-23T00:10:31.875Z,263.13
2019-03-23T00:12:59.350Z,240.83
2019-03-23T00:15:26.676Z,275.63
2019-03-23T00:17:53.989Z,243.63
2019-03-23T00:20:21.202Z,233.57
2019-03-23T00:22:48.422Z,244.17
2019-03-23T00:25:15.711Z,249.47
2019-03-23T00:27:42.926Z,245.80
2019-03-23T00:30:10.462Z,257.10
2019-03-23T00:32:37.775Z,243.07
2019-03-23T00:35:06.174Z,247.07
2019-03-23T00:37:33.553Z,214.37
2019-03-23T00:40:00.872Z,228.17
2019-03-23T00:42:28.185Z,224.07
2019-03-23T00:44:55.412Z,226.00
2019-03-23T00:47:22.626Z,206.60
2019-03-23T00:49:50.121Z,216.03
2019-03-23T00:52:17.340Z,239.93
2019-03-23T00:54:44.564Z,240.93
2019-03-23T00:57:11.875Z,194.73
2019-03-23T00:59:39.182Z,205.20
2019-03-23T01:02:06.389Z,172.23
2019-03-23T01:04:33.593Z,176.57
2019-03-23T01:07:00.929Z,183.30
2019-03-23T01:09:28.137Z,176.53
2019-03-23T01:11:55.502Z,169.93
2019-03-23T01:14:22.937Z,187.33
2019-03-23T01:16:50.463Z,200.27
2019-03-23T01:19:17.668Z,198.17
2019-03-23T01:21:45.002Z,179.50
2019-03-23T01:24:12.196Z,194.73
2019-03-23T01:26:39.397Z,187.17
2019-03-23T01:29:06.705Z,187.67
2019-03-23T01:31:35.101Z,181.20
2019-03-23T01:34:02.438Z,193.30
2019-03-23T01:36:29.624Z,206.57
2019-03-23T01:38:56.828Z,198.00
2019-03-23T01:41:24.736Z,179.63
2019-03-23T01:43:51.963Z,194.43
2019-03-23T01:46:19.289Z,189.53
2019-03-23T01:48:46.518Z,178.13
2019-03-23T01:51:13.724Z,158.13
2019-03-23T01:53:40.938Z,158.37
2019-03-23T01:56:08.151Z,162.53
2019-03-23T01:58:35.455Z,157.20
2019-03-23T02:01:02.766Z,158.80
2019-03-23T02:03:30.087Z,145.27
2019-03-23T02:05:57.387Z,153.43
2019-03-23T02:08:24.589Z,179.13
2019-03-23T02:10:51.897Z,160.60
2019-03-23T02:13:19.267Z,168.53
2019-03-23T02:15:46.451Z,279.97
2019-03-23T02:18:13.750Z,296.33
2019-03-23T02:20:40.965Z,193.57
2019-03-23T02:23:08.165Z,338.33
2019-03-23T02:25:35.474Z,189.73
2019-03-23T02:28:02.869Z,333.10
2019-03-23T02:30:30.129Z,255.27
2019-03-23T02:32:57.339Z,241.80
2019-03-23T02:35:24.627Z,176.90
2019-03-23T02:37:51.843Z,240.90
2019-03-23T02:40:19.297Z,299.67
2019-03-23T02:42:46.493Z,472.83
2019-03-23T02:45:14.004Z,299.50
2019-03-23T02:47:41.186Z,155.00
2019-03-23T02:50:25.154Z,238.63
2019-03-23T02:52:46.635Z,248.97
2019-03-23T02:55:14.206Z,181.87
2019-03-23T02:57:41.429Z,173.90
2019-03-23T03:00:09.263Z,173.93
2019-03-23T03:02:36.665Z,178.80
2019-03-23T03:05:04.744Z,156.17
2019-03-23T03:07:42.087Z,177.90
2019-03-23T03:10:01.160Z,171.47
2019-03-23T03:12:28.352Z,197.13
2019-03-23T03:14:55.595Z,196.70
2019-03-23T03:17:22.778Z,166.00
2019-03-23T03:19:49.980Z,187.73
2019-03-23T03:22:17.539Z,186.33
2019-03-23T03:24:44.842Z,190.70
2019-03-23T03:27:12.037Z,173.63
2019-03-23T03:29:39.286Z,202.70
2019-03-23T03:32:06.483Z,177.77
2019-03-23T03:34:33.694Z,200.47
2019-03-23T03:37:01.031Z,193.50
2019-03-23T03:39:28.227Z,202.53
2019-03-23T03:41:55.538Z,191.47
2019-03-23T03:44:22.781Z,190.33
2019-03-23T03:46:50.105Z,175.33
2019-03-23T03:49:17.291Z,183.40
2019-03-23T03:51:44.518Z,163.47
2019-03-23T03:54:11.800Z,177.57
2019-03-23T03:56:39.109Z,179.60
2019-03-23T03:59:06.501Z,173.40
2019-03-23T04:01:33.682Z,164.10
2019-03-23T04:04:00.884Z,197.37
2019-03-23T04:06:28.676Z,171.17
2019-03-23T04:08:55.872Z,201.80
2019-03-23T04:11:23.083Z,227.17
2019-03-23T04:13:50.432Z,204.63
2019-03-23T04:16:17.703Z,205.63
2019-03-23T04:18:45.069Z,236.03
2019-03-23T04:21:12.286Z,208.63
2019-03-23T04:23:39.719Z,194.00
2019-03-23T04:26:07.081Z,194.63
2019-03-23T04:28:34.414Z,226.27
2019-03-23T04:31:01.709Z,222.83
2019-03-23T04:33:29.018Z,228.47
2019-03-23T04:35:56.227Z,234.37
2019-03-23T04:38:23.477Z,222.07
2019-03-23T04:40:50.645Z,232.40
2019-03-23T04:43:17.893Z,252.93
2019-03-23T04:45:45.086Z,242.07
2019-03-23T04:48:12.397Z,250.60
2019-03-23T04:50:39.724Z,224.53
2019-03-23T04:53:06.914Z,218.07
2019-03-23T04:55:34.274Z,242.20
2019-03-23T04:58:01.565Z,235.43
2019-03-23T05:00:28.765Z,216.87
2019-03-23T05:02:56.096Z,230.60
2019-03-23T05:05:23.384Z,209.47
2019-03-23T05:07:50.580Z,191.40
2019-03-23T05:10:17.986Z,202.13
2019-03-23T05:12:45.165Z,205.57
2019-03-23T05:15:12.577Z,224.70
2019-03-23T05:17:39.798Z,220.03
2019-03-23T05:20:07.114Z,207.47
2019-03-23T05:22:34.452Z,194.00
2019-03-23T05:25:01.781Z,181.03
2019-03-23T05:27:28.981Z,186.80
2019-03-23T05:29:56.221Z,209.23
2019-03-23T05:32:23.405Z,187.20
2019-03-23T05:34:50.610Z,208.07
2019-03-23T05:37:18.823Z,191.73
2019-03-23T05:39:46.023Z,209.10
2019-03-23T05:42:13.247Z,202.07
2019-03-23T05:44:40.482Z,212.10
2019-03-23T05:47:07.688Z,199.37
2019-03-23T05:49:34.889Z,210.33
2019-03-23T05:52:02.186Z,225.03
2019-03-23T05:54:29.710Z,192.17
2019-03-23T05:56:57.014Z,217.97
2019-03-23T05:59:24.301Z,234.97
2019-03-23T06:01:51.595Z,196.13
2019-03-23T06:04:18.785Z,205.37
2019-03-23T06:06:45.988Z,200.63
2019-03-23T06:09:13.290Z,159.70
2019-03-23T06:11:40.489Z,189.00
2019-03-23T06:14:07.683Z,170.47
2019-03-23T06:16:34.871Z,170.60
2019-03-23T06:19:02.106Z,162.40
2019-03-23T06:21:29.282Z,177.50
2019-03-23T06:23:56.477Z,165.47
2019-03-23T06:26:23.712Z,175.47
2019-03-23T06:28:50.905Z,186.83
2019-03-23T06:31:18.194Z,175.90
2019-03-23T06:33:45.417Z,183.47
2019-03-23T06:36:12.718Z,191.20
2019-03-23T06:38:39.907Z,169.87
2019-03-23T06:41:07.145Z,179.87
2019-03-23T06:43:34.385Z,176.83
2019-03-23T06:46:01.602Z,153.03
2019-03-23T06:48:28.837Z,177.50
2019-03-23T06:50:56.024Z,174.67
2019-03-23T06:53:23.248Z,181.80
2019-03-23T06:55:50.460Z,181.17
2019-03-23T06:58:17.761Z,177.67
2019-03-23T07:00:44.984Z,184.17
2019-03-23T07:03:12.198Z,173.10
2019-03-23T07:05:39.393Z,170.30
2019-03-23T07:08:06.590Z,181.00
2019-03-23T07:10:33.897Z,162.03
2019-03-23T07:13:01.098Z,168.37
2019-03-23T07:15:28.286Z,159.97
2019-03-23T07:17:55.514Z,149.17
2019-03-23T07:20:22.807Z,171.57
2019-03-23T07:22:50.110Z,159.80
2019-03-23T07:25:17.418Z,155.93
2019-03-23T07:27:44.746Z,174.57
2019-03-23T07:30:12.921Z,133.17
2019-03-23T07:32:40.207Z,156.03
2019-03-23T07:35:07.771Z,165.97
2019-03-23T07:37:34.971Z,155.93
2019-03-23T07:40:02.392Z,146.87
2019-03-23T07:42:29.579Z,143.83
2019-03-23T07:44:58.290Z,159.97
2019-03-23T07:47:25.577Z,138.77
2019-03-23T07:49:52.767Z,155.03
2019-03-23T07:52:19.969Z,151.53
2019-03-23T07:54:47.171Z,187.33
2019-03-23T07:57:14.590Z,151.07
2019-03-23T07:59:41.980Z,138.47
2019-03-23T08:02:09.155Z,154.67
2019-03-23T08:04:36.370Z,164.50
2019-03-23T08:07:03.863Z,124.73
2019-03-23T08:09:37.674Z,146.50
2019-03-23T08:12:00.313Z,134.07
2019-03-23T08:14:27.544Z,131.47
2019-03-23T08:16:55.122Z,138.27
2019-03-23T08:19:22.314Z,149.63
2019-03-23T08:21:49.498Z,138.60
2019-03-23T08:24:17.025Z,129.57
2019-03-23T08:26:44.310Z,139.30
2019-03-23T08:29:11.904Z,133.40
2019-03-23T08:31:39.241Z,152.67
2019-03-23T08:34:06.613Z,135.20
2019-03-23T08:36:33.826Z,145.07
2019-03-23T08:39:01.204Z,106.30
2019-03-23T08:41:30.655Z,84.57
2019-03-23T08:43:57.859Z,116.50
2019-03-23T08:46:25.214Z,110.43
2019-03-23T08:48:52.418Z,113.23
2019-03-23T08:51:19.830Z,166.57
2019-03-23T08:53:47.398Z,140.20
2019-03-23T08:56:14.732Z,109.37
2019-03-23T08:58:41.089Z,150.23
2019-03-23T09:01:08.409Z,128.07
2019-03-23T09:03:36.086Z,151.53
2019-03-23T09:06:03.418Z,122.50
2019-03-23T09:08:30.584Z,118.00
2019-03-23T09:10:57.823Z,124.87
2019-03-23T09:13:25.226Z,111.40
2019-03-23T09:15:52.749Z,151.83
2019-03-23T09:18:20.316Z,137.37
2019-03-23T09:20:47.520Z,121.63
2019-03-23T09:23:15.170Z,120.73
2019-03-23T09:25:45.583Z,107.93
2019-03-23T09:28:14.074Z,122.03
2019-03-23T09:30:41.396Z,119.23
2019-03-23T09:33:08.732Z,109.53
2019-03-23T09:35:39.493Z,128.23
2019-03-23T09:38:05.419Z,138.93
2019-03-23T09:40:32.922Z,125.10
2019-03-23T09:43:00.213Z,72.00
2019-03-23T09:45:27.942Z,103.00
2019-03-23T09:47:55.261Z,93.53
2019-03-23T09:50:22.468Z,127.93
2019-03-23T09:52:50.029Z,134.60
2019-03-23T09:55:17.243Z,128.03
2019-03-23T09:57:45.444Z,137.53
2019-03-23T10:00:41.248Z,126.27
2019-03-23T10:03:08.785Z,116.97
2019-03-23T10:05:36.030Z,125.30
2019-03-23T10:08:03.235Z,117.27
2019-03-23T10:10:30.442Z,126.23
2019-03-23T10:12:57.786Z,134.23
2019-03-23T10:15:25.116Z,85.97
2019-03-23T10:17:52.322Z,112.93
2019-03-23T10:20:19.570Z,132.97
2019-03-23T10:22:46.777Z,149.37
2019-03-23T10:25:14.187Z,130.60
2019-03-23T10:27:41.670Z,154.10
2019-03-23T10:30:09.109Z,120.20
2019-03-23T10:32:36.517Z,134.57
2019-03-23T10:35:06.246Z,169.60
2019-03-23T10:37:33.563Z,104.17
2019-03-23T10:40:00.785Z,152.20
2019-03-23T10:42:28.005Z,117.70
2019-03-23T10:44:55.222Z,114.53
2019-03-23T10:47:22.564Z,137.33
2019-03-23T10:49:49.762Z,118.50
2019-03-23T10:52:16.958Z,185.23
2019-03-23T10:54:44.186Z,130.03
2019-03-23T10:57:11.508Z,126.90
2019-03-23T10:59:38.817Z,116.03
2019-03-23T11:02:06.120Z,125.20
2019-03-23T11:04:33.437Z,121.30
2019-03-23T11:07:00.638Z,106.20
2019-03-23T11:09:28.946Z,160.83
2019-03-23T11:11:56.178Z,127.67
2019-03-23T11:14:23.478Z,123.40
2019-03-23T11:16:50.745Z,115.33
2019-03-23T11:19:17.969Z,125.10
2019-03-23T11:21:45.170Z,108.20
2019-03-23T11:24:12.475Z,139.57
2019-03-23T11:26:39.781Z,121.83
2019-03-23T11:29:08.415Z,144.80
2019-03-23T11:31:35.803Z,110.43
2019-03-23T11:34:03.292Z,129.07
2019-03-23T11:36:30.514Z,114.80
2019-03-23T11:38:57.839Z,105.27
2019-03-23T11:41:25.052Z,123.53
2019-03-23T11:43:52.267Z,115.93
2019-03-23T11:46:19.481Z,122.33
2019-03-23T11:48:47.496Z,133.70
2019-03-23T11:51:14.718Z,115.17
2019-03-23T11:53:41.945Z,137.07
2019-03-23T11:56:09.174Z,135.33
2019-03-23T11:58:36.383Z,126.87
2019-03-23T12:01:03.641Z,117.33
2019-03-23T12:03:30.858Z,116.10
2019-03-23T12:05:58.062Z,119.17
2019-03-23T12:08:25.276Z,115.27
2019-03-23T12:11:02.510Z,102.47
2019-03-23T12:13:21.906Z,114.87
2019-03-23T12:15:49.138Z,120.03
2019-03-23T12:18:16.387Z,123.33
2019-03-23T12:20:43.722Z,120.93
2019-03-23T12:23:10.927Z,102.77
2019-03-23T12:25:38.259Z,129.43
2019-03-23T12:28:05.479Z,113.83
2019-03-23T12:30:32.801Z,123.87
2019-03-23T12:33:00.186Z,118.60
2019-03-23T12:35:27.510Z,106.53
2019-03-23T12:37:54.937Z,87.50
2019-03-23T12:40:22.150Z,103.23
2019-03-23T12:42:49.622Z,81.30
2019-03-23T12:45:17.043Z,93.27
2019-03-23T12:47:44.263Z,100.30
2019-03-23T12:50:12.304Z,96.93
2019-03-23T12:52:39.622Z,74.30
2019-03-23T12:55:06.970Z,75.37
2019-03-23T12:57:35.420Z,114.87
2019-03-23T13:00:03.520Z,68.13
2019-03-23T13:02:30.750Z,96.97
2019-03-23T13:04:57.991Z,73.73
2019-03-23T13:07:25.256Z,68.33
2019-03-23T13:09:52.488Z,64.93
2019-03-23T13:12:19.716Z,50.03
2019-03-23T13:14:46.948Z,54.60
2019-03-23T13:17:14.270Z,52.37
2019-03-23T13:19:41.634Z,51.27
2019-03-23T13:22:08.841Z,43.63
2019-03-23T13:24:37.123Z,40.73
2019-03-23T13:27:04.459Z,35.30
2019-03-23T13:29:31.673Z,40.73
2019-03-23T13:31:58.898Z,34.37
2019-03-23T13:34:26.161Z,30.90
2019-03-23T13:36:53.374Z,31.27
2019-03-23T13:39:20.726Z,42.93
2019-03-23T13:41:49.010Z,24.27
2019-03-23T13:44:17.794Z,36.80
2019-03-23T13:46:45.115Z,19.43
2019-03-23T13:49:12.745Z,17.97
2019-03-23T13:51:40.918Z,14.77
2019-03-23T13:54:08.207Z,14.47
2019-03-23T13:56:35.443Z,65.00
2019-03-23T13:59:02.919Z,18.40
2019-03-23T14:01:30.281Z,14.80
2019-03-23T14:03:57.482Z,12.00
2019-03-23T14:06:24.717Z,8.50
2019-03-23T14:08:52.272Z,11.30
2019-03-23T14:11:19.604Z,7.00
2019-03-23T14:13:46.906Z,11.50
2019-03-23T14:16:14.386Z,12.83
2019-03-23T14:18:41.685Z,10.43
2019-03-23T14:21:08.911Z,9.30
2019-03-23T14:23:36.128Z,13.83
2019-03-23T14:26:03.591Z,16.80
2019-03-23T14:28:30.978Z,8.80
2019-03-23T14:30:58.512Z,11.43
2019-03-23T14:33:25.761Z,10.43
2019-03-23T14:35:53.021Z,9.53
2019-03-23T14:38:20.312Z,20.20
2019-03-23T14:40:47.540Z,10.97
2019-03-23T14:43:14.765Z,21.03
2019-03-23T14:45:42.014Z,12.93
2019-03-23T14:48:09.216Z,24.47
2019-03-23T14:50:36.526Z,20.53
2019-03-23T14:53:03.869Z,15.30
2019-03-23T14:55:31.078Z,29.30
2019-03-23T14:57:58.321Z,15.20
2019-03-23T15:00:29.948Z,14.17
2019-03-23T15:02:57.180Z,18.53
2019-03-23T15:05:24.380Z,11.83
2019-03-23T15:07:51.707Z,11.67
2019-03-23T15:10:18.955Z,12.90
2019-03-23T15:12:46.275Z,9.60
2019-03-23T15:15:13.654Z,12.73
2019-03-23T15:17:48.383Z,11.83
2019-03-23T15:20:10.322Z,10.30
2019-03-23T15:22:45.220Z,9.10
2019-03-23T15:25:12.543Z,21.73
2019-03-23T15:27:39.776Z,17.80
2019-03-23T15:30:07.655Z,22.37
2019-03-23T15:32:34.999Z,16.27
2019-03-23T15:35:02.418Z,17.30
2019-03-23T15:37:29.768Z,20.43
2019-03-23T15:39:56.960Z,12.50
2019-03-23T15:42:24.908Z,24.43
2019-03-23T15:44:52.465Z,21.27
2019-03-23T15:47:19.712Z,14.27
2019-03-23T15:49:46.884Z,13.07
2019-03-23T15:52:14.820Z,20.83
2019-03-23T15:54:42.030Z,12.07
2019-03-23T20:43:30.577Z,21.33
2019-03-23T20:45:58.225Z,30.53
2019-03-23T20:48:25.837Z,29.67
2019-03-23T20:50:53.578Z,34.83
2019-03-23T20:53:20.962Z,134.00
2019-03-23T20:55:48.154Z,80.73
2019-03-23T20:58:16.035Z,41.13
2019-03-23T21:00:43.272Z,29.20
2019-03-23T21:03:10.810Z,31.60
2019-03-23T21:05:38.106Z,28.90
2019-03-23T21:08:05.395Z,26.43
2019-03-23T21:10:32.714Z,26.07
2019-03-23T21:13:00.224Z,21.20
2019-03-23T21:15:27.512Z,28.83
2019-03-23T21:17:55.166Z,37.40
2019-03-23T21:20:22.824Z,26.60
2019-03-23T21:22:50.462Z,25.43
2019-03-23T21:25:17.750Z,32.83
2019-03-23T21:27:45.103Z,26.53
2019-03-23T21:30:13.349Z,25.63
2019-03-23T21:32:40.637Z,30.33
2019-03-23T21:35:08.077Z,37.33
2019-03-23T21:37:35.659Z,22.02
2019-03-23T21:40:03.228Z,46.63
2019-03-23T21:42:30.450Z,30.70
2019-03-23T21:44:57.762Z,33.90
2019-03-23T21:47:25.102Z,26.77
2019-03-23T21:49:52.398Z,36.65
2019-03-23T21:52:19.610Z,22.80
2019-03-23T21:54:46.910Z,34.20
2019-03-23T21:57:14.145Z,30.47
2019-03-23T21:59:41.370Z,46.02
2019-03-23T22:02:08.889Z,32.60
2019-03-23T22:04:36.230Z,38.73
2019-03-23T22:07:03.791Z,32.98
2019-03-23T22:09:31.172Z,23.70
2019-03-23T22:11:58.629Z,25.23
2019-03-23T22:14:25.930Z,21.27
2019-03-23T22:16:53.421Z,28.20
2019-03-23T22:19:20.605Z,35.73
2019-03-23T22:21:47.815Z,25.03
2019-03-23T22:24:15.058Z,27.82
2019-03-23T22:26:42.282Z,30.33
2019-03-23T22:29:09.486Z,30.60
2019-03-23T22:31:36.754Z,36.03
2019-03-23T22:34:04.082Z,30.93
2019-03-23T22:36:31.289Z,34.17
2019-03-23T22:38:58.591Z,31.93
2019-03-23T22:41:26.925Z,58.43
2019-03-23T22:43:54.235Z,23.00
2019-03-23T22:46:21.470Z,27.37
2019-03-23T22:48:48.690Z,33.85
2019-03-23T22:51:15.921Z,36.20
2019-03-23T22:53:43.151Z,28.47
2019-03-23T22:56:10.385Z,34.37
2019-03-23T22:58:37.681Z,40.67
2019-03-23T23:01:05.198Z,27.93
2019-03-23T23:03:32.534Z,38.92
2019-03-23T23:05:59.783Z,43.27
2019-03-23T23:08:27.018Z,38.90
2019-03-23T23:10:54.546Z,37.90
2019-03-23T23:13:22.207Z,45.63
2019-03-23T23:15:49.422Z,33.97
2019-03-23T23:18:17.010Z,29.45
2019-03-23T23:20:44.567Z,53.02
2019-03-23T23:23:11.960Z,39.37
2019-03-23T23:25:39.366Z,37.00
2019-03-23T23:28:06.707Z,45.87
2019-03-23T23:30:34.463Z,44.50
2019-03-23T23:33:01.664Z,43.43
2019-03-23T23:35:29.145Z,49.10
2019-03-23T23:37:57.537Z,42.33
2019-03-23T23:40:24.998Z,34.30
2019-03-23T23:42:52.271Z,29.93
2019-03-23T23:45:20.074Z,36.53
2019-03-23T23:47:47.451Z,30.25
2019-03-23T23:50:14.929Z,29.60
2019-03-23T23:52:42.341Z,35.63
2019-03-23T23:55:09.831Z,40.28
2019-03-23T23:57:37.251Z,33.35
